createdAt,value
2022-10-20T00:01:37.513Z,3.50
2022-10-20T00:04:10.225Z,3.20
2022-10-20T00:06:40.240Z,3.78
2022-10-20T00:09:10.457Z,3.65
2022-10-20T00:11:40.455Z,3.80
2022-10-20T00:14:10.502Z,3.25
2022-10-20T00:16:43.958Z,4.20
2022-10-20T00:19:16.738Z,4.68
2022-10-20T00:21:46.830Z,4.47
2022-10-20T00:24:16.800Z,5.10
2022-10-20T00:26:46.814Z,5.65
2022-10-20T00:32:06.968Z,5.55
2022-10-20T00:34:39.690Z,5.15
2022-10-20T00:37:09.744Z,4.43
2022-10-20T00:39:41.849Z,4.25
2022-10-20T00:42:17.401Z,4.30
2022-10-20T00:44:54.329Z,4.05
2022-10-20T00:47:36.535Z,4.10
2022-10-20T00:50:15.590Z,4.07
2022-10-20T00:52:46.896Z,4.07
2022-10-20T00:55:19.986Z,3.53
2022-10-20T00:57:52.761Z,4.13
2022-10-20T01:00:32.897Z,3.53
2022-10-20T01:03:04.769Z,3.95
2022-10-20T01:05:37.433Z,3.78
2022-10-20T01:08:08.009Z,3.63
2022-10-20T01:10:44.786Z,3.83
2022-10-20T01:13:21.556Z,3.83
2022-10-20T01:15:56.881Z,3.10
2022-10-20T01:18:34.698Z,3.30
2022-10-20T01:21:25.173Z,3.30
2022-10-20T01:24:21.665Z,3.70
2022-10-20T01:27:08.493Z,3.17
2022-10-20T01:29:47.289Z,3.45
2022-10-20T01:32:24.677Z,3.60
2022-10-20T01:35:00.590Z,3.28
2022-10-20T01:37:49.065Z,3.20
2022-10-20T01:40:27.108Z,3.75
2022-10-20T01:42:59.922Z,3.28
2022-10-20T01:45:36.602Z,3.10
2022-10-20T01:48:09.915Z,2.65
2022-10-20T01:50:42.805Z,4.47
2022-10-20T01:53:12.833Z,3.08
2022-10-20T01:55:43.753Z,3.60
2022-10-20T01:58:52.324Z,2.88
2022-10-20T02:01:38.640Z,2.83
2022-10-20T02:04:10.956Z,2.92
2022-10-20T02:06:45.985Z,2.42
2022-10-20T02:09:20.163Z,2.97
2022-10-20T02:11:57.996Z,2.53
2022-10-20T02:14:28.933Z,3.00
2022-10-20T02:17:04.270Z,2.33
2022-10-20T02:19:37.714Z,2.42
2022-10-20T02:22:09.336Z,2.50
2022-10-20T02:24:42.230Z,3.08
2022-10-20T02:27:17.402Z,2.65
2022-10-20T02:29:54.762Z,3.10
2022-10-20T02:34:57.540Z,2.78
2022-10-20T02:37:27.554Z,2.80
2022-10-20T02:40:00.954Z,2.75
2022-10-20T02:42:31.021Z,2.80
2022-10-20T02:45:01.000Z,2.78
2022-10-20T02:47:33.891Z,2.50
2022-10-20T02:50:07.872Z,2.85
2022-10-20T02:52:38.482Z,2.60
2022-10-20T02:55:09.002Z,2.80
2022-10-20T02:57:39.366Z,2.78
2022-10-20T03:00:12.279Z,2.40
2022-10-20T03:02:45.026Z,2.50
2022-10-20T03:05:15.018Z,2.60
2022-10-20T03:07:45.104Z,2.40
2022-10-20T03:10:16.038Z,2.38
2022-10-20T03:12:46.132Z,2.85
2022-10-20T03:15:16.349Z,2.53
2022-10-20T03:17:48.952Z,2.47
2022-10-20T03:20:21.391Z,2.42
2022-10-20T03:22:51.464Z,2.88
2022-10-20T03:25:21.597Z,2.78
2022-10-20T03:27:51.630Z,2.95
2022-10-20T03:30:22.123Z,3.13
2022-10-20T03:32:55.926Z,3.55
2022-10-20T03:35:25.853Z,2.47
2022-10-20T03:37:55.833Z,2.40
2022-10-20T03:40:26.274Z,2.80
2022-10-20T03:42:56.533Z,2.60
2022-10-20T03:45:26.541Z,2.33
2022-10-20T03:47:59.234Z,2.78
2022-10-20T03:50:30.554Z,2.95
2022-10-20T03:53:00.526Z,3.67
2022-10-20T03:55:30.515Z,2.85
2022-10-20T03:58:00.757Z,2.67
2022-10-20T04:00:32.950Z,3.00
2022-10-20T04:03:05.562Z,2.97
2022-10-20T04:05:35.623Z,3.42
2022-10-20T04:08:06.543Z,3.40
2022-10-20T04:10:38.037Z,3.13
2022-10-20T04:13:09.287Z,2.78
2022-10-20T04:15:39.361Z,2.90
2022-10-20T04:18:12.601Z,3.13
2022-10-20T04:20:44.514Z,3.40
2022-10-20T04:23:14.900Z,3.42
2022-10-20T04:25:47.737Z,3.40
2022-10-20T04:28:19.092Z,3.88
2022-10-20T04:30:49.784Z,3.83
2022-10-20T04:33:22.390Z,3.80
2022-10-20T04:35:58.899Z,3.63
2022-10-20T04:38:29.694Z,3.45
2022-10-20T04:41:03.387Z,3.35
2022-10-20T04:43:37.301Z,3.63
2022-10-20T04:46:09.411Z,3.45
2022-10-20T04:48:46.031Z,3.47
2022-10-20T04:51:18.752Z,3.75
2022-10-20T04:53:48.852Z,3.40
2022-10-20T04:56:23.390Z,3.65
2022-10-20T04:58:54.570Z,3.20
2022-10-20T05:01:27.227Z,3.35
2022-10-20T05:04:00.349Z,3.15
2022-10-20T05:06:32.115Z,3.08
2022-10-20T05:09:04.366Z,3.88
2022-10-20T05:11:38.310Z,3.05
2022-10-20T05:14:09.303Z,3.25
2022-10-20T05:16:39.334Z,6.32
2022-10-20T05:19:12.842Z,7.07
2022-10-20T05:21:43.075Z,10.60
2022-10-20T05:24:20.841Z,5.97
2022-10-20T05:26:52.477Z,4.22
2022-10-20T05:29:22.531Z,3.85
2022-10-20T05:31:52.773Z,3.78
2022-10-20T05:34:25.406Z,4.07
2022-10-20T05:36:56.130Z,3.42
2022-10-20T05:39:27.065Z,3.78
2022-10-20T05:41:57.158Z,4.20
2022-10-20T05:44:27.226Z,4.50
2022-10-20T05:46:57.189Z,4.05
2022-10-20T05:49:30.779Z,3.90
2022-10-20T05:52:01.415Z,3.90
2022-10-20T05:54:31.412Z,3.83
2022-10-20T05:57:01.422Z,4.18
2022-10-20T05:59:32.481Z,4.00
2022-10-20T06:02:02.433Z,4.10
2022-10-20T06:04:35.315Z,4.70
2022-10-20T06:07:05.929Z,4.38
2022-10-20T06:09:36.333Z,4.22
2022-10-20T06:14:56.608Z,3.67
2022-10-20T06:17:26.719Z,3.33
2022-10-20T06:22:33.299Z,3.63
2022-10-20T06:25:03.311Z,3.67
2022-10-20T06:27:33.559Z,3.60
2022-10-20T06:30:07.100Z,3.80
2022-10-20T06:32:38.797Z,3.63
2022-10-20T06:35:12.042Z,4.65
2022-10-20T06:37:42.015Z,3.63
2022-10-20T06:40:18.085Z,3.83
2022-10-20T06:42:52.063Z,3.70
2022-10-20T06:45:22.258Z,3.65
2022-10-20T06:47:52.278Z,4.10
2022-10-20T06:50:26.277Z,4.53
2022-10-20T06:52:56.309Z,3.60
2022-10-20T06:55:26.429Z,3.72
2022-10-20T06:57:56.622Z,4.30
2022-10-20T07:03:18.876Z,3.10
2022-10-20T07:05:51.605Z,3.38
2022-10-20T07:08:21.586Z,3.55
2022-10-20T07:10:59.958Z,3.85
2022-10-20T07:13:31.623Z,3.70
2022-10-20T07:16:02.745Z,3.85
2022-10-20T07:18:33.226Z,3.72
2022-10-20T07:21:08.297Z,2.95
2022-10-20T07:23:39.373Z,2.50
2022-10-20T07:26:11.986Z,2.38
2022-10-20T07:28:44.336Z,2.40
2022-10-20T07:31:20.145Z,2.80
2022-10-20T07:34:06.880Z,2.80
2022-10-20T07:36:45.826Z,2.45
2022-10-20T07:39:16.341Z,2.13
2022-10-20T07:41:48.226Z,2.40
2022-10-20T07:44:19.354Z,2.45
2022-10-20T07:46:49.432Z,1.60
2022-10-20T07:52:12.297Z,1.48
2022-10-20T07:54:42.280Z,2.40
2022-10-20T07:57:12.342Z,1.85
2022-10-20T07:59:45.222Z,2.15
2022-10-20T08:02:16.557Z,1.50
2022-10-20T08:04:46.707Z,1.90
2022-10-20T08:07:19.909Z,2.45
2022-10-20T08:09:57.755Z,1.60
2022-10-20T08:12:28.023Z,1.80
2022-10-20T08:15:03.938Z,1.50
2022-10-20T08:17:34.351Z,2.00
2022-10-20T08:20:09.768Z,1.50
2022-10-20T08:22:43.161Z,1.40
2022-10-20T08:25:17.226Z,1.83
2022-10-20T08:27:47.344Z,1.60
2022-10-20T08:30:25.040Z,2.08
2022-10-20T08:32:55.485Z,1.90
2022-10-20T08:35:25.988Z,1.90
2022-10-20T08:37:58.760Z,2.13
2022-10-20T08:40:32.435Z,1.80
2022-10-20T08:43:02.480Z,1.77
2022-10-20T08:45:37.327Z,1.77
2022-10-20T08:48:09.693Z,1.77
2022-10-20T08:50:42.610Z,2.28
2022-10-20T08:53:16.015Z,2.08
2022-10-20T08:55:49.908Z,1.70
2022-10-20T09:00:59.303Z,1.80
2022-10-20T09:03:33.751Z,1.98
2022-10-20T09:06:10.665Z,1.70
2022-10-20T09:08:45.188Z,1.80
2022-10-20T09:11:21.084Z,1.65
2022-10-20T09:13:51.640Z,2.00
2022-10-20T09:16:40.712Z,1.77
2022-10-20T09:19:21.536Z,2.00
2022-10-20T09:21:55.640Z,1.83
2022-10-20T09:24:31.305Z,1.95
2022-10-20T09:27:22.013Z,1.90
2022-10-20T09:29:59.867Z,2.17
2022-10-20T09:32:46.561Z,1.77
2022-10-20T09:35:29.471Z,2.10
2022-10-20T09:38:07.197Z,1.70
2022-10-20T09:40:47.351Z,1.60
2022-10-20T09:43:20.507Z,2.33
2022-10-20T09:45:57.008Z,1.70
2022-10-20T09:48:30.071Z,2.05
2022-10-20T09:51:01.480Z,2.00
2022-10-20T09:53:35.486Z,2.15
2022-10-20T09:58:42.271Z,2.03
2022-10-20T10:01:18.382Z,1.70
2022-10-20T10:03:51.752Z,2.00
2022-10-20T10:06:32.693Z,2.00
2022-10-20T10:09:05.123Z,2.17
2022-10-20T10:11:39.595Z,2.60
2022-10-20T10:14:09.664Z,2.42
2022-10-20T10:16:44.398Z,2.05
2022-10-20T10:19:20.927Z,2.17
2022-10-20T10:21:55.439Z,2.00
2022-10-20T10:24:39.589Z,2.28
2022-10-20T10:27:22.786Z,1.70
2022-10-20T10:30:30.305Z,2.00
2022-10-20T10:33:00.454Z,2.10
2022-10-20T10:35:34.938Z,2.10
2022-10-20T10:38:05.246Z,2.20
2022-10-20T10:40:39.646Z,1.80
2022-10-20T10:43:32.288Z,2.15
2022-10-20T10:46:09.128Z,1.90
2022-10-20T10:49:02.135Z,2.15
2022-10-20T10:51:51.404Z,2.00
2022-10-20T10:54:34.283Z,2.40
2022-10-20T10:57:13.570Z,2.10
2022-10-20T10:59:48.736Z,1.85
2022-10-20T11:02:42.706Z,2.00
2022-10-20T11:05:27.477Z,2.22
2022-10-20T11:08:09.660Z,2.22
2022-10-20T11:10:50.971Z,2.17
2022-10-20T11:13:29.098Z,1.85
2022-10-20T11:16:14.941Z,1.90
2022-10-20T11:18:59.831Z,1.92
2022-10-20T11:21:35.349Z,1.90
2022-10-20T11:24:12.654Z,2.30
2022-10-20T11:26:46.110Z,1.88
2022-10-20T11:29:24.101Z,2.00
2022-10-20T11:32:04.467Z,2.03
2022-10-20T11:34:40.520Z,2.42
2022-10-20T11:37:20.838Z,2.13
2022-10-20T11:39:58.277Z,2.30
2022-10-20T11:42:35.521Z,2.92
2022-10-20T11:45:31.062Z,2.38
2022-10-20T11:48:14.245Z,2.45
2022-10-20T11:50:51.927Z,2.40
2022-10-20T11:53:40.044Z,2.05
2022-10-20T11:56:31.381Z,2.25
2022-10-20T11:59:22.154Z,2.35
2022-10-20T12:02:15.760Z,2.15
2022-10-20T12:05:13.383Z,2.47
2022-10-20T12:08:28.160Z,2.97
2022-10-20T12:11:03.756Z,2.28
2022-10-20T12:13:42.639Z,2.35
2022-10-20T12:16:12.943Z,2.33
2022-10-20T12:19:03.161Z,2.70
2022-10-20T12:22:03.164Z,2.80
2022-10-20T12:24:36.790Z,2.20
2022-10-20T12:27:22.514Z,2.70
2022-10-20T12:29:58.359Z,2.65
2022-10-20T12:32:57.757Z,1.75
2022-10-20T12:36:03.132Z,2.35
2022-10-20T12:38:38.650Z,2.22
2022-10-20T12:41:15.350Z,2.22
2022-10-20T12:43:52.820Z,2.22
2022-10-20T12:46:26.206Z,2.30
2022-10-20T12:49:01.393Z,1.92
2022-10-20T12:51:37.584Z,2.65
2022-10-20T12:54:20.997Z,2.60
2022-10-20T12:56:52.439Z,2.25
2022-10-20T12:59:41.170Z,2.33
2022-10-20T13:02:33.710Z,2.47
2022-10-20T13:05:06.468Z,2.40
2022-10-20T13:08:09.239Z,2.40
2022-10-20T13:10:53.936Z,2.35
2022-10-20T13:14:10.432Z,2.28
2022-10-20T13:16:41.971Z,2.72
2022-10-20T13:19:17.784Z,2.30
2022-10-20T13:21:50.922Z,2.20
2022-10-20T13:24:25.005Z,2.67
2022-10-20T13:27:00.241Z,2.40
2022-10-20T13:29:37.530Z,2.22
2022-10-20T13:32:19.196Z,2.35
2022-10-20T13:34:54.754Z,2.03
2022-10-20T13:37:53.218Z,2.05
2022-10-20T13:40:36.538Z,1.98
2022-10-20T13:43:30.765Z,2.05
2022-10-20T13:46:14.352Z,2.50
2022-10-20T13:48:59.437Z,2.38
2022-10-20T13:51:31.707Z,2.65
2022-10-20T13:54:04.841Z,2.10
2022-10-20T13:56:38.934Z,2.75
2022-10-20T13:59:25.382Z,3.03
2022-10-20T14:01:57.773Z,2.67
2022-10-20T14:04:30.130Z,2.05
2022-10-20T14:07:05.694Z,2.42
2022-10-20T14:09:36.016Z,2.40
2022-10-20T14:12:11.337Z,2.17
2022-10-20T14:14:46.501Z,2.25
2022-10-20T14:17:23.166Z,2.80
2022-10-20T14:19:53.692Z,3.00
2022-10-20T14:22:25.888Z,2.60
2022-10-20T14:25:00.789Z,2.60
2022-10-20T14:27:34.880Z,3.15
2022-10-20T14:30:18.524Z,2.80
2022-10-20T14:32:50.958Z,3.20
2022-10-20T14:35:33.467Z,2.47
2022-10-20T14:38:06.564Z,3.05
2022-10-20T14:40:39.740Z,2.88
2022-10-20T14:43:17.798Z,2.28
2022-10-20T14:45:59.518Z,2.60
2022-10-20T14:48:34.756Z,2.08
2022-10-20T14:51:06.060Z,2.40
2022-10-20T14:53:36.670Z,2.70
2022-10-20T14:56:25.152Z,2.72
2022-10-20T14:59:00.987Z,2.40
2022-10-20T15:01:34.345Z,2.88
2022-10-20T15:04:17.877Z,2.70
2022-10-20T15:06:48.114Z,2.15
2022-10-20T15:09:23.077Z,2.58
2022-10-20T15:11:53.221Z,2.65
2022-10-20T15:14:24.478Z,2.47
2022-10-20T15:16:57.174Z,2.65
2022-10-20T15:19:31.939Z,2.40
2022-10-20T15:22:04.922Z,2.50
2022-10-20T15:24:35.024Z,2.20
2022-10-20T15:27:05.748Z,2.65
2022-10-20T15:29:37.440Z,2.38
2022-10-20T15:32:11.850Z,2.58
2022-10-20T15:34:42.030Z,2.70
2022-10-20T15:37:12.300Z,2.45
2022-10-20T15:39:50.417Z,2.90
2022-10-20T15:42:21.130Z,3.17
2022-10-20T15:44:54.182Z,2.75
2022-10-20T15:47:26.881Z,3.03
2022-10-20T15:52:52.278Z,2.80
2022-10-20T15:55:27.981Z,2.55
2022-10-20T15:57:58.434Z,2.75
2022-10-20T16:00:31.558Z,2.78
2022-10-20T16:03:04.862Z,2.58
2022-10-20T16:05:35.542Z,2.67
2022-10-20T16:08:05.776Z,2.92
2022-10-20T16:10:36.019Z,3.00
2022-10-20T16:13:26.316Z,3.13
2022-10-20T16:16:18.843Z,3.55
2022-10-20T16:19:11.496Z,3.15
2022-10-20T16:22:01.511Z,3.38
2022-10-20T16:24:51.491Z,3.83
2022-10-20T16:27:41.886Z,3.15
2022-10-20T16:30:31.785Z,3.45
2022-10-20T16:33:21.664Z,3.25
2022-10-20T16:35:54.446Z,3.30
2022-10-20T16:38:24.650Z,3.28
2022-10-20T16:41:04.936Z,2.97
2022-10-20T16:43:35.225Z,3.03
2022-10-20T16:46:08.523Z,3.33
2022-10-20T16:48:41.502Z,3.55
2022-10-20T16:51:15.959Z,3.90
2022-10-20T16:53:46.680Z,4.27
2022-10-20T16:56:24.125Z,3.90
2022-10-20T16:58:54.791Z,3.95
2022-10-20T17:01:26.218Z,3.70
2022-10-20T17:03:58.057Z,3.95
2022-10-20T17:06:31.112Z,4.25
2022-10-20T17:09:02.349Z,4.45
2022-10-20T17:11:35.036Z,4.68
2022-10-20T17:14:05.285Z,4.90
2022-10-20T17:16:39.174Z,5.55
2022-10-20T17:19:09.740Z,6.07
2022-10-20T17:21:42.787Z,7.53
2022-10-20T17:24:14.158Z,7.40
2022-10-20T17:26:44.790Z,9.65
2022-10-20T17:29:15.123Z,11.98
2022-10-20T17:31:45.589Z,12.57
2022-10-20T17:34:17.691Z,13.65
2022-10-20T17:36:50.938Z,13.68
2022-10-20T17:39:22.154Z,13.32
2022-10-20T17:41:52.720Z,13.27
2022-10-20T17:44:23.433Z,13.32
2022-10-20T17:46:54.050Z,13.52
2022-10-20T17:49:28.034Z,11.70
2022-10-20T17:54:31.124Z,13.05
2022-10-20T17:57:02.593Z,15.13
2022-10-20T17:59:42.347Z,12.18
2022-10-20T18:02:23.814Z,13.10
2022-10-20T18:04:54.538Z,15.32
2022-10-20T18:07:27.702Z,12.88
2022-10-20T18:09:58.074Z,11.80
2022-10-20T18:12:29.099Z,11.50
2022-10-20T18:14:59.330Z,11.23
2022-10-20T18:17:32.338Z,10.35
2022-10-20T18:20:02.653Z,9.43
2022-10-20T18:22:36.015Z,9.10
2022-10-20T18:25:08.712Z,9.05
2022-10-20T18:27:39.181Z,9.15
2022-10-20T18:30:11.469Z,8.15
2022-10-20T18:32:42.024Z,7.47
2022-10-20T18:35:12.782Z,6.88
2022-10-20T18:37:45.753Z,7.43
2022-10-20T18:42:47.521Z,7.22
2022-10-20T18:45:20.319Z,8.82
2022-10-20T18:47:54.783Z,9.90
2022-10-20T18:50:25.238Z,9.52
2022-10-20T18:52:58.286Z,9.65
2022-10-20T18:55:28.567Z,9.88
2022-10-20T18:57:59.506Z,9.98
2022-10-20T19:00:31.077Z,9.10
2022-10-20T19:03:04.338Z,9.63
2022-10-20T19:05:37.017Z,10.00
2022-10-20T19:08:13.361Z,9.93
2022-10-20T19:10:45.227Z,9.52
2022-10-20T19:13:17.982Z,9.82
2022-10-20T19:15:48.622Z,9.10
2022-10-20T19:18:19.017Z,9.18
2022-10-20T19:20:56.832Z,9.68
2022-10-20T19:23:30.489Z,10.10
2022-10-20T19:26:08.865Z,9.65
2022-10-20T19:28:43.878Z,10.02
2022-10-20T19:31:21.126Z,9.45
2022-10-20T19:33:54.887Z,9.60
2022-10-20T19:36:25.351Z,10.35
2022-10-20T19:38:59.361Z,9.77
2022-10-20T19:41:30.517Z,9.38
2022-10-20T19:44:00.994Z,8.70
2022-10-20T19:46:32.734Z,9.18
2022-10-20T19:51:38.302Z,8.60
2022-10-20T19:54:12.335Z,8.98
2022-10-20T19:56:42.695Z,8.57
2022-10-20T19:59:14.180Z,8.35
2022-10-20T20:01:44.680Z,8.73
2022-10-20T20:04:16.175Z,7.72
2022-10-20T20:06:46.465Z,7.18
2022-10-20T20:09:20.160Z,8.43
2022-10-20T20:11:50.586Z,9.02
2022-10-20T20:14:22.123Z,9.13
2022-10-20T20:16:52.313Z,8.82
2022-10-20T20:19:22.634Z,8.13
2022-10-20T20:21:53.004Z,7.65
2022-10-20T20:24:25.920Z,7.25
2022-10-20T20:26:59.544Z,7.72
2022-10-20T20:29:30.065Z,8.80
2022-10-20T20:32:00.134Z,7.35
2022-10-20T20:34:30.279Z,7.15
2022-10-20T20:37:00.264Z,6.45
2022-10-20T20:39:33.230Z,7.47
2022-10-20T20:42:03.295Z,7.00
2022-10-20T20:44:33.577Z,7.38
2022-10-20T20:47:03.990Z,6.63
2022-10-20T20:49:35.178Z,6.57
2022-10-20T20:52:05.201Z,7.60
2022-10-20T20:54:37.901Z,6.53
2022-10-20T20:57:07.942Z,6.75
2022-10-20T20:59:37.946Z,7.28
2022-10-20T21:02:08.109Z,7.45
2022-10-20T21:04:38.592Z,7.47
2022-10-20T21:07:08.674Z,7.25
2022-10-20T21:09:41.298Z,6.15
2022-10-20T21:14:42.270Z,7.15
2022-10-20T21:17:12.550Z,6.68
2022-10-20T21:19:42.567Z,7.32
2022-10-20T21:22:15.545Z,6.50
2022-10-20T21:24:48.278Z,6.95
2022-10-20T21:27:18.340Z,7.32
2022-10-20T21:29:48.958Z,6.20
2022-10-20T21:32:20.500Z,6.45
2022-10-20T21:34:55.246Z,6.07
2022-10-20T21:37:25.331Z,6.10
2022-10-20T21:39:59.256Z,6.25
2022-10-20T21:42:29.310Z,6.43
2022-10-20T21:44:59.447Z,5.70
2022-10-20T21:47:32.013Z,5.93
2022-10-20T21:50:02.271Z,5.72
2022-10-20T21:52:32.554Z,5.97
2022-10-20T21:55:05.258Z,5.63
2022-10-20T21:57:35.435Z,6.43
2022-10-20T22:00:05.637Z,6.30
2022-10-20T22:02:35.633Z,6.00
2022-10-20T22:05:06.287Z,6.32
2022-10-20T22:07:36.527Z,6.35
2022-10-20T22:10:10.288Z,5.65
2022-10-20T22:12:44.122Z,6.03
2022-10-20T22:24:35.811Z,5.60
2022-10-20T22:27:15.548Z,5.93
2022-10-20T22:29:57.586Z,5.43
2022-10-20T22:32:27.791Z,5.95
2022-10-20T22:34:57.806Z,5.80
2022-10-20T22:37:29.590Z,5.72
2022-10-20T22:39:59.592Z,6.20
2022-10-20T22:42:32.237Z,5.60
2022-10-20T22:45:02.288Z,5.43
2022-10-20T22:47:32.380Z,5.85
2022-10-20T22:50:02.495Z,6.93
2022-10-20T22:52:32.598Z,5.50
2022-10-20T22:55:02.587Z,5.45
2022-10-20T22:57:35.328Z,5.70
2022-10-20T23:00:05.700Z,5.55
2022-10-20T23:02:36.373Z,5.80
2022-10-20T23:05:07.125Z,5.03
2022-10-20T23:07:37.525Z,5.70
2022-10-20T23:10:09.098Z,5.70
2022-10-20T23:12:41.737Z,5.57
2022-10-20T23:15:12.645Z,4.70
2022-10-20T23:17:42.720Z,5.25
2022-10-20T23:20:13.971Z,5.20
2022-10-20T23:22:44.060Z,5.18
2022-10-20T23:25:14.137Z,5.43
2022-10-20T23:27:46.759Z,4.78
2022-10-20T23:30:16.842Z,5.35
2022-10-20T23:32:46.946Z,5.05
2022-10-20T23:35:19.370Z,5.13
2022-10-20T23:37:49.443Z,5.63
2022-10-20T23:40:20.193Z,5.30
2022-10-20T23:42:53.065Z,4.82
2022-10-20T23:45:23.117Z,5.53
2022-10-20T23:47:53.341Z,4.90
2022-10-20T23:50:26.013Z,5.20
2022-10-20T23:52:56.316Z,4.97
2022-10-20T23:55:26.292Z,4.97
2022-10-20T23:57:59.020Z,4.85
